createdAt,value
2022-09-21T00:02:08.582Z,96334.00
2022-09-21T00:06:14.856Z,96326.00
2022-09-21T00:10:20.027Z,96334.00
2022-09-21T00:14:22.771Z,96336.00
2022-09-21T00:18:26.481Z,96326.00
2022-09-21T00:22:30.514Z,96328.00
2022-09-21T00:26:33.443Z,96322.00
2022-09-21T00:30:36.221Z,96319.00
2022-09-21T00:34:38.898Z,96321.00
2022-09-21T00:38:43.225Z,96323.00
2022-09-21T00:42:45.954Z,96329.00
2022-09-21T00:46:51.390Z,96325.00
2022-09-21T00:50:56.919Z,96317.00
2022-09-21T00:55:05.190Z,96319.00
2022-09-21T00:59:09.585Z,96326.00
2022-09-21T01:03:13.709Z,96326.00
2022-09-21T01:07:19.342Z,96322.00
2022-09-21T01:11:35.173Z,96322.00
2022-09-21T01:15:46.290Z,96317.00
2022-09-21T01:20:31.201Z,96312.00
2022-09-21T01:24:55.474Z,96307.00
2022-09-21T01:29:13.725Z,96311.00
2022-09-21T01:33:23.326Z,96305.00
2022-09-21T01:37:32.495Z,96301.00
2022-09-21T01:41:38.280Z,96313.00
2022-09-21T01:45:46.945Z,96311.00
2022-09-21T01:49:54.798Z,96319.00
2022-09-21T01:54:02.630Z,96306.00
2022-09-21T01:58:18.009Z,96314.00
2022-09-21T02:02:42.157Z,96308.00
2022-09-21T02:06:47.693Z,96291.00
2022-09-21T02:10:53.578Z,96306.00
2022-09-21T02:14:56.686Z,96296.00
2022-09-21T02:19:12.137Z,96297.00
2022-09-21T02:23:23.174Z,96301.00
2022-09-21T02:27:34.273Z,96308.00
2022-09-21T02:31:43.286Z,96305.00
2022-09-21T02:35:51.285Z,96302.00
2022-09-21T02:40:00.301Z,96311.00
2022-09-21T02:44:07.703Z,96310.00
2022-09-21T02:48:14.430Z,96305.00
2022-09-21T02:52:19.199Z,96316.00
2022-09-21T02:56:22.633Z,96304.00
2022-09-21T03:00:25.348Z,96315.00
2022-09-21T03:04:28.833Z,96297.00
2022-09-21T03:08:32.957Z,96300.00
2022-09-21T03:12:35.654Z,96300.00
2022-09-21T03:16:39.201Z,96306.00
2022-09-21T03:20:46.329Z,96304.00
2022-09-21T03:24:50.685Z,96311.00
2022-09-21T03:28:54.658Z,96302.00
2022-09-21T03:32:57.408Z,96309.00
2022-09-21T03:37:00.301Z,96313.00
2022-09-21T03:41:04.835Z,96308.00
2022-09-21T03:45:09.334Z,96309.00
2022-09-21T03:49:12.089Z,96312.00
2022-09-21T03:53:15.745Z,96314.00
2022-09-21T03:57:20.040Z,96304.00
2022-09-21T04:01:22.779Z,96306.00
2022-09-21T04:05:25.746Z,96306.00
2022-09-21T04:09:28.469Z,96309.00
2022-09-21T04:13:32.965Z,96305.00
2022-09-21T04:17:35.656Z,96326.00
2022-09-21T04:21:38.363Z,96322.00
2022-09-21T04:25:41.882Z,96319.00
2022-09-21T04:29:46.102Z,96311.00
2022-09-21T04:33:50.739Z,96309.00
2022-09-21T04:37:56.166Z,96325.00
2022-09-21T04:41:58.906Z,96323.00
2022-09-21T04:46:07.945Z,96323.00
2022-09-21T04:50:10.974Z,96330.00
2022-09-21T04:54:13.616Z,96327.00
2022-09-21T04:58:16.335Z,96334.00
2022-09-21T05:02:20.415Z,96336.00
2022-09-21T05:06:23.111Z,96342.00
2022-09-21T05:10:26.017Z,96349.00
2022-09-21T05:14:28.697Z,96347.00
2022-09-21T05:18:33.255Z,96330.00
2022-09-21T05:22:35.973Z,96352.00
2022-09-21T05:26:38.826Z,96340.00
2022-09-21T05:30:51.559Z,96361.00
2022-09-21T05:35:17.491Z,96346.00
2022-09-21T05:39:20.917Z,96346.00
2022-09-21T05:43:24.113Z,96362.00
2022-09-21T05:47:38.100Z,96350.00
2022-09-21T05:51:51.334Z,96351.00
2022-09-21T05:55:57.713Z,96364.00
2022-09-21T06:00:04.318Z,96373.00
2022-09-21T06:04:15.073Z,96369.00
2022-09-21T06:08:19.193Z,96367.00
2022-09-21T06:12:21.905Z,96366.00
2022-09-21T06:16:24.665Z,96366.00
2022-09-21T06:20:27.521Z,96369.00
2022-09-21T06:24:31.618Z,96374.00
2022-09-21T06:28:34.464Z,96370.00
2022-09-21T06:32:37.267Z,96375.00
2022-09-21T06:36:39.985Z,96379.00
2022-09-21T06:40:44.089Z,96381.00
2022-09-21T06:44:46.778Z,96391.00
2022-09-21T06:48:50.079Z,96389.00
2022-09-21T06:52:52.757Z,96393.00
2022-09-21T06:56:59.947Z,96393.00
2022-09-21T07:01:08.852Z,96395.00
2022-09-21T07:05:11.947Z,96396.00
2022-09-21T07:13:38.753Z,96399.00
2022-09-21T07:17:42.983Z,96398.00
2022-09-21T07:21:45.723Z,96409.00
2022-09-21T07:25:50.469Z,96404.00
2022-09-21T07:29:54.537Z,96404.00
2022-09-21T07:33:59.125Z,96405.00
2022-09-21T07:38:03.329Z,96400.00
2022-09-21T07:42:06.519Z,96408.00
2022-09-21T07:46:12.690Z,96412.00
2022-09-21T07:50:15.570Z,96417.00
2022-09-21T07:54:18.270Z,96411.00
2022-09-21T07:58:38.259Z,96424.00
2022-09-21T08:02:47.268Z,96419.00
2022-09-21T08:06:50.406Z,96436.00
2022-09-21T08:10:54.542Z,96431.00
2022-09-21T08:14:57.234Z,96425.00
2022-09-21T08:19:02.133Z,96438.00
2022-09-21T08:23:04.948Z,96430.00
2022-09-21T08:27:07.870Z,96436.00
2022-09-21T08:31:11.175Z,96439.00
2022-09-21T08:35:15.385Z,96445.00
2022-09-21T08:39:18.078Z,96446.00
2022-09-21T08:43:32.785Z,96452.00
2022-09-21T08:47:40.225Z,96454.00
2022-09-21T08:51:48.018Z,96454.00
2022-09-21T08:55:50.974Z,96458.00
2022-09-21T08:59:54.060Z,96461.00
2022-09-21T09:04:10.446Z,96459.00
2022-09-21T09:08:37.529Z,96460.00
2022-09-21T09:12:52.810Z,96461.00
2022-09-21T09:17:12.275Z,96460.00
2022-09-21T09:21:29.611Z,96463.00
2022-09-21T09:25:38.633Z,96463.00
2022-09-21T09:29:46.739Z,96471.00
2022-09-21T09:33:54.760Z,96474.00
2022-09-21T09:38:03.701Z,96471.00
2022-09-21T09:42:25.486Z,96465.00
2022-09-21T09:46:34.833Z,96466.00
2022-09-21T09:50:39.790Z,96463.00
2022-09-21T09:54:42.494Z,96458.00
2022-09-21T09:58:50.793Z,96453.00
2022-09-21T10:02:55.634Z,96445.00
2022-09-21T10:06:59.769Z,96447.00
2022-09-21T10:11:02.867Z,96448.00
2022-09-21T10:15:12.820Z,96440.00
2022-09-21T10:19:18.280Z,96440.00
2022-09-21T10:23:21.203Z,96443.00
2022-09-21T10:27:27.942Z,96427.00
2022-09-21T10:31:32.440Z,96423.00
2022-09-21T10:35:50.782Z,96423.00
2022-09-21T10:39:53.504Z,96423.00
2022-09-21T10:43:56.222Z,96431.00
2022-09-21T10:48:09.526Z,96432.00
2022-09-21T10:52:12.394Z,96425.00
2022-09-21T10:56:19.682Z,96423.00
2022-09-21T11:00:35.312Z,96418.00
2022-09-21T11:04:44.497Z,96413.00
2022-09-21T11:08:54.540Z,96412.00
2022-09-21T11:13:12.553Z,96419.00
2022-09-21T11:17:21.192Z,96419.00
2022-09-21T11:21:34.624Z,96417.00
2022-09-21T11:25:43.850Z,96410.00
2022-09-21T11:29:54.337Z,96408.00
2022-09-21T11:34:17.210Z,96416.00
2022-09-21T11:38:34.340Z,96405.00
2022-09-21T11:42:51.274Z,96405.00
2022-09-21T11:47:05.449Z,96412.00
2022-09-21T11:51:23.284Z,96397.00
2022-09-21T11:55:44.447Z,96400.00
2022-09-21T12:00:02.233Z,96403.00
2022-09-21T12:04:20.879Z,96394.00
2022-09-21T12:08:43.189Z,96387.00
2022-09-21T12:12:53.426Z,96384.00
2022-09-21T12:17:05.565Z,96388.00
2022-09-21T12:21:15.042Z,96375.00
2022-09-21T12:25:21.451Z,96381.00
2022-09-21T12:29:28.045Z,96387.00
2022-09-21T12:33:36.727Z,96385.00
2022-09-21T12:37:42.781Z,96381.00
2022-09-21T12:41:53.687Z,96384.00
2022-09-21T12:46:01.147Z,96375.00
2022-09-21T12:50:10.328Z,96381.00
2022-09-21T12:54:25.052Z,96371.00
2022-09-21T12:58:50.768Z,96366.00
2022-09-21T13:02:59.804Z,96377.00
2022-09-21T13:07:30.039Z,96373.00
2022-09-21T13:11:35.166Z,96376.00
2022-09-21T13:15:44.654Z,96373.00
2022-09-21T13:19:58.314Z,96372.00
2022-09-21T13:24:02.626Z,96372.00
2022-09-21T13:28:19.629Z,96370.00
2022-09-21T13:32:24.707Z,96373.00
2022-09-21T13:36:35.216Z,96356.00
2022-09-21T13:40:37.978Z,96353.00
2022-09-21T13:44:43.832Z,96356.00
2022-09-21T13:48:53.931Z,96346.00
2022-09-21T13:53:00.296Z,96349.00
2022-09-21T13:57:16.609Z,96335.00
2022-09-21T14:01:45.728Z,96335.00
2022-09-21T14:05:47.914Z,96333.00
2022-09-21T14:09:59.066Z,96337.00
2022-09-21T14:14:10.263Z,96325.00
2022-09-21T14:18:36.650Z,96337.00
2022-09-21T14:22:41.707Z,96332.00
2022-09-21T14:26:53.413Z,96328.00
2022-09-21T14:31:00.299Z,96333.00
2022-09-21T14:35:11.064Z,96326.00
2022-09-21T14:39:20.106Z,96325.00
2022-09-21T14:43:28.036Z,96319.00
2022-09-21T14:47:51.710Z,96321.00
2022-09-21T14:52:12.876Z,96318.00
2022-09-21T14:56:36.945Z,96322.00
2022-09-21T15:00:43.165Z,96316.00
2022-09-21T15:05:09.809Z,96309.00
2022-09-21T15:09:49.613Z,96308.00
2022-09-21T15:14:05.440Z,96305.00
2022-09-21T15:18:20.394Z,96297.00
2022-09-21T15:22:24.462Z,96296.00
2022-09-21T15:26:30.327Z,96292.00
2022-09-21T15:30:41.666Z,96299.00
2022-09-21T15:34:45.815Z,96296.00
2022-09-21T15:38:49.638Z,96299.00
2022-09-21T15:43:01.380Z,96288.00
2022-09-21T15:47:08.215Z,96288.00
2022-09-21T15:51:17.229Z,96289.00
2022-09-21T15:55:21.973Z,96290.00
2022-09-21T15:59:24.754Z,96300.00
2022-09-21T16:03:27.684Z,96296.00
2022-09-21T16:07:34.301Z,96297.00
2022-09-21T16:11:37.649Z,96304.00
2022-09-21T16:15:40.448Z,96299.00
2022-09-21T16:19:44.927Z,96310.00
2022-09-21T16:23:51.329Z,96312.00
2022-09-21T16:27:55.722Z,96305.00
2022-09-21T16:32:28.771Z,96314.00
2022-09-21T16:36:42.260Z,96314.00
2022-09-21T16:40:47.512Z,96306.00
2022-09-21T16:44:50.977Z,96314.00
2022-09-21T16:48:55.503Z,96306.00
2022-09-21T16:52:58.207Z,96317.00
2022-09-21T16:57:03.529Z,96315.00
2022-09-21T17:01:06.437Z,96325.00
2022-09-21T17:05:10.948Z,96315.00
2022-09-21T17:09:20.838Z,96319.00
2022-09-21T17:13:25.131Z,96323.00
2022-09-21T17:17:27.851Z,96316.00
2022-09-21T17:21:31.218Z,96310.00
2022-09-21T17:25:34.747Z,96313.00
2022-09-21T17:29:39.894Z,96316.00
2022-09-21T17:33:42.840Z,96319.00
2022-09-21T17:37:45.893Z,96320.00
2022-09-21T17:41:52.730Z,96313.00
2022-09-21T17:46:03.541Z,96321.00
2022-09-21T17:50:26.098Z,96320.00
2022-09-21T17:54:29.143Z,96330.00
2022-09-21T17:58:42.730Z,96334.00
2022-09-21T18:02:47.335Z,96336.00
2022-09-21T18:06:50.543Z,96336.00
2022-09-21T18:11:04.506Z,96333.00
2022-09-21T18:15:14.206Z,96338.00
2022-09-21T18:19:42.431Z,96342.00
2022-09-21T18:24:08.653Z,96335.00
2022-09-21T18:28:16.579Z,96343.00
2022-09-21T18:32:33.123Z,96333.00
2022-09-21T18:36:44.552Z,96341.00
2022-09-21T18:40:59.146Z,96334.00
2022-09-21T18:45:05.986Z,96346.00
2022-09-21T18:49:17.002Z,96345.00
2022-09-21T18:53:27.942Z,96347.00
2022-09-21T18:57:32.437Z,96351.00
2022-09-21T19:01:36.336Z,96354.00
2022-09-21T19:05:44.043Z,96344.00
2022-09-21T19:09:55.263Z,96340.00
2022-09-21T19:14:04.909Z,96340.00
2022-09-21T19:18:17.326Z,96347.00
2022-09-21T19:22:29.174Z,96340.00
2022-09-21T19:26:40.261Z,96343.00
2022-09-21T19:30:43.438Z,96349.00
2022-09-21T19:34:47.529Z,96343.00
2022-09-21T19:38:50.729Z,96342.00
2022-09-21T19:43:12.174Z,96351.00
2022-09-21T19:47:30.276Z,96346.00
2022-09-21T19:51:39.210Z,96354.00
2022-09-21T19:56:01.578Z,96360.00
2022-09-21T20:00:08.607Z,96340.00
2022-09-21T20:04:14.976Z,96346.00
2022-09-21T20:08:22.444Z,96343.00
2022-09-21T20:12:29.356Z,96345.00
2022-09-21T20:16:41.081Z,96349.00
2022-09-21T20:20:44.080Z,96338.00
2022-09-21T20:24:54.722Z,96338.00
2022-09-21T20:28:58.059Z,96336.00
2022-09-21T20:33:05.233Z,96335.00
2022-09-21T20:37:11.420Z,96337.00
2022-09-21T20:41:16.550Z,96338.00
2022-09-21T20:45:19.684Z,96338.00
2022-09-21T20:49:23.750Z,96341.00
2022-09-21T20:53:26.430Z,96349.00
2022-09-21T20:57:29.226Z,96341.00
2022-09-21T21:01:32.049Z,96342.00
2022-09-21T21:05:36.149Z,96339.00
2022-09-21T21:09:38.849Z,96354.00
2022-09-21T21:13:42.298Z,96349.00
2022-09-21T21:17:45.127Z,96350.00
2022-09-21T21:21:49.174Z,96353.00
2022-09-21T21:25:51.958Z,96341.00
2022-09-21T21:29:55.817Z,96333.00
2022-09-21T21:33:58.554Z,96332.00
2022-09-21T21:38:02.785Z,96339.00
2022-09-21T21:42:06.108Z,96330.00
2022-09-21T21:46:10.086Z,96330.00
2022-09-21T21:50:12.846Z,96325.00
2022-09-21T21:54:18.226Z,96335.00
2022-09-21T21:58:21.392Z,96333.00
2022-09-21T22:02:24.339Z,96327.00
2022-09-21T22:06:28.503Z,96325.00
2022-09-21T22:10:33.696Z,96325.00
2022-09-21T22:14:36.346Z,96323.00
2022-09-21T22:18:39.722Z,96329.00
2022-09-21T22:22:42.438Z,96323.00
2022-09-21T22:26:48.408Z,96321.00
2022-09-21T22:30:51.118Z,96321.00
2022-09-21T22:34:53.815Z,96312.00
2022-09-21T22:38:56.783Z,96318.00
2022-09-21T22:43:00.881Z,96317.00
2022-09-21T22:47:03.640Z,96313.00
2022-09-21T22:51:06.754Z,96310.00
2022-09-21T22:55:10.310Z,96300.00
2022-09-21T22:59:14.363Z,96310.00
2022-09-21T23:03:17.559Z,96302.00
2022-09-21T23:07:20.299Z,96298.00
2022-09-21T23:11:26.846Z,96300.00
2022-09-21T23:15:32.195Z,96290.00
2022-09-21T23:19:35.261Z,96279.00
2022-09-21T23:23:38.006Z,96285.00
2022-09-21T23:27:40.702Z,96286.00
2022-09-21T23:31:46.145Z,96270.00
2022-09-21T23:35:51.030Z,96280.00
2022-09-21T23:39:53.680Z,96276.00
2022-09-21T23:43:57.209Z,96269.00
2022-09-21T23:48:01.458Z,96276.00
2022-09-21T23:52:04.265Z,96264.00
2022-09-21T23:56:09.261Z,96261.00
